createdAt,value
2023-04-13T00:00:48.320Z,10.29
2023-04-13T00:03:18.920Z,10.29
2023-04-13T00:05:46.160Z,10.32
2023-04-13T00:08:13.418Z,10.25
2023-04-13T00:10:42.469Z,10.25
2023-04-13T00:13:10.049Z,10.23
2023-04-13T00:15:40.393Z,10.28
2023-04-13T00:18:08.129Z,10.30
2023-04-13T00:20:34.321Z,10.26
2023-04-13T00:23:00.668Z,10.26
2023-04-13T00:25:27.056Z,10.20
2023-04-13T00:27:53.402Z,10.20
2023-04-13T00:30:20.595Z,10.18
2023-04-13T00:32:47.998Z,10.11
2023-04-13T00:35:23.961Z,10.16
2023-04-13T00:37:52.142Z,10.13
2023-04-13T00:40:18.581Z,10.11
2023-04-13T00:42:47.090Z,10.14
2023-04-13T00:45:13.768Z,10.15
2023-04-13T00:47:42.418Z,10.15
2023-04-13T00:50:09.009Z,10.15
2023-04-13T00:52:37.530Z,10.08
2023-04-13T00:55:03.993Z,10.08
2023-04-13T00:57:32.126Z,10.12
2023-04-13T00:59:59.472Z,10.13
2023-04-13T01:02:26.147Z,10.25
2023-04-13T01:04:55.175Z,10.25
2023-04-13T01:07:58.670Z,10.27
2023-04-13T01:11:03.273Z,10.31
2023-04-13T01:14:11.601Z,10.30
2023-04-13T01:16:48.317Z,10.25
2023-04-13T01:19:27.486Z,10.28
2023-04-13T01:21:54.256Z,10.23
2023-04-13T01:24:37.031Z,10.22
2023-04-13T01:27:12.332Z,10.25
2023-04-13T01:29:39.556Z,10.27
2023-04-13T01:32:08.151Z,10.29
2023-04-13T01:34:35.888Z,10.27
2023-04-13T01:37:06.975Z,10.28
2023-04-13T01:39:36.225Z,10.34
2023-04-13T01:42:21.979Z,10.42
2023-04-13T01:44:50.556Z,10.39
2023-04-13T01:47:20.916Z,10.30
2023-04-13T01:50:29.107Z,10.40
2023-04-13T01:53:10.454Z,10.50
2023-04-13T01:55:42.111Z,10.54
2023-04-13T01:58:12.400Z,10.62
2023-04-13T02:00:40.709Z,10.65
2023-04-13T02:03:11.509Z,10.60
2023-04-13T02:05:39.409Z,10.60
2023-04-13T02:08:07.779Z,10.59
2023-04-13T02:10:39.403Z,10.63
2023-04-13T02:13:06.569Z,10.71
2023-04-13T02:15:35.214Z,10.65
2023-04-13T02:18:01.761Z,10.72
2023-04-13T02:20:30.026Z,10.69
2023-04-13T02:23:00.017Z,10.71
2023-04-13T02:25:27.456Z,10.72
2023-04-13T02:27:54.041Z,10.76
2023-04-13T02:30:20.610Z,10.78
2023-04-13T02:32:48.740Z,10.77
2023-04-13T02:35:15.803Z,10.76
2023-04-13T02:37:42.414Z,10.66
2023-04-13T02:40:12.960Z,10.76
2023-04-13T02:42:39.205Z,10.69
2023-04-13T02:45:08.085Z,10.76
2023-04-13T02:47:36.159Z,10.72
2023-04-13T02:50:03.856Z,10.75
2023-04-13T02:52:38.761Z,10.73
2023-04-13T02:55:07.342Z,10.76
2023-04-13T02:57:45.362Z,10.74
2023-04-13T03:00:13.008Z,10.74
2023-04-13T03:02:47.107Z,10.75
2023-04-13T03:05:16.241Z,10.68
2023-04-13T03:07:42.276Z,10.62
2023-04-13T03:10:10.263Z,10.59
2023-04-13T03:12:37.027Z,10.65
2023-04-13T03:15:10.426Z,10.64
2023-04-13T03:17:40.897Z,10.59
2023-04-13T03:20:15.843Z,10.55
2023-04-13T03:22:52.915Z,10.46
2023-04-13T03:25:20.855Z,10.48
2023-04-13T03:27:47.256Z,10.38
2023-04-13T03:30:17.910Z,10.37
2023-04-13T03:32:51.699Z,10.35
2023-04-13T03:35:20.847Z,10.31
2023-04-13T03:37:47.282Z,10.33
2023-04-13T03:40:25.087Z,10.39
2023-04-13T03:42:52.564Z,10.37
2023-04-13T03:45:21.969Z,10.37
2023-04-13T03:47:49.062Z,10.36
2023-04-13T03:50:16.320Z,10.37
2023-04-13T03:52:42.486Z,10.43
2023-04-13T03:55:08.999Z,10.47
2023-04-13T03:57:36.719Z,10.49
2023-04-13T04:00:10.502Z,10.51
2023-04-13T04:03:12.016Z,10.48
2023-04-13T04:05:50.974Z,10.48
2023-04-13T04:08:17.326Z,10.45
2023-04-13T04:10:43.803Z,10.58
2023-04-13T04:13:10.937Z,10.59
2023-04-13T04:15:42.617Z,10.60
2023-04-13T04:18:09.627Z,10.69
2023-04-13T04:20:38.646Z,10.66
2023-04-13T04:23:05.250Z,10.71
2023-04-13T04:25:41.198Z,10.69
2023-04-13T04:28:07.512Z,10.67
2023-04-13T04:30:34.379Z,10.61
2023-04-13T04:33:02.540Z,10.52
2023-04-13T04:35:34.117Z,10.39
2023-04-13T04:38:05.772Z,10.31
2023-04-13T04:40:35.276Z,10.39
2023-04-13T04:43:04.003Z,10.38
2023-04-13T04:45:37.612Z,10.53
2023-04-13T04:48:06.998Z,10.59
2023-04-13T04:50:33.503Z,10.62
2023-04-13T04:53:08.103Z,10.63
2023-04-13T04:55:34.702Z,10.71
2023-04-13T04:58:01.304Z,10.78
2023-04-13T05:00:30.253Z,10.82
2023-04-13T05:03:02.125Z,10.94
2023-04-13T05:05:31.546Z,11.02
2023-04-13T05:08:02.701Z,11.04
2023-04-13T05:10:30.017Z,11.06
2023-04-13T05:12:57.457Z,11.14
2023-04-13T05:15:26.008Z,11.17
2023-04-13T05:17:53.335Z,11.22
2023-04-13T05:20:19.909Z,11.33
2023-04-13T05:23:05.037Z,11.41
2023-04-13T05:25:38.792Z,11.39
2023-04-13T05:28:10.012Z,11.38
2023-04-13T05:30:36.684Z,11.44
2023-04-13T05:33:06.009Z,11.49
2023-04-13T05:35:33.743Z,11.37
2023-04-13T05:38:00.548Z,11.42
2023-04-13T05:40:29.813Z,11.43
2023-04-13T05:42:57.566Z,11.45
2023-04-13T05:45:28.124Z,11.43
2023-04-13T05:48:03.972Z,11.48
2023-04-13T05:50:30.539Z,11.53
2023-04-13T05:52:56.815Z,11.59
2023-04-13T05:55:24.170Z,11.63
2023-04-13T05:57:57.581Z,11.71
2023-04-13T06:00:25.232Z,11.72
2023-04-13T06:03:01.851Z,11.73
2023-04-13T06:05:31.085Z,11.72
2023-04-13T06:07:58.948Z,11.86
2023-04-13T06:10:25.866Z,11.91
2023-04-13T06:12:52.535Z,11.91
2023-04-13T06:15:20.011Z,11.96
2023-04-13T06:17:50.764Z,11.99
2023-04-13T06:20:17.178Z,12.00
2023-04-13T06:22:43.367Z,12.05
2023-04-13T06:25:11.417Z,12.16
2023-04-13T06:27:42.764Z,12.13
2023-04-13T06:30:09.928Z,12.17
2023-04-13T06:32:36.294Z,12.20
2023-04-13T06:35:05.231Z,12.30
2023-04-13T06:37:38.760Z,12.39
2023-04-13T06:40:14.865Z,12.44
2023-04-13T06:42:48.238Z,12.42
2023-04-13T06:45:47.640Z,12.55
2023-04-13T06:48:20.275Z,12.68
2023-04-13T06:50:51.517Z,12.85
2023-04-13T06:53:17.914Z,12.97
2023-04-13T06:55:44.468Z,13.09
2023-04-13T06:58:10.711Z,13.27
2023-04-13T07:00:37.197Z,13.30
2023-04-13T07:03:03.913Z,13.44
2023-04-13T07:05:31.293Z,13.47
2023-04-13T07:08:05.694Z,13.51
2023-04-13T07:10:37.290Z,13.52
2023-04-13T07:13:03.584Z,13.50
2023-04-13T07:15:32.304Z,13.45
2023-04-13T07:17:59.211Z,13.57
2023-04-13T07:20:26.614Z,13.70
2023-04-13T07:22:52.997Z,13.83
2023-04-13T07:25:20.904Z,13.89
2023-04-13T07:27:48.390Z,13.96
2023-04-13T07:30:15.663Z,14.19
2023-04-13T07:32:45.244Z,14.52
2023-04-13T07:35:12.204Z,14.87
2023-04-13T07:37:41.650Z,15.39
2023-04-13T07:40:10.920Z,16.53
2023-04-13T07:42:39.213Z,17.18
2023-04-13T07:45:06.762Z,16.80
2023-04-13T07:47:33.222Z,16.81
2023-04-13T07:50:05.823Z,16.62
2023-04-13T07:52:32.497Z,16.78
2023-04-13T07:55:01.695Z,17.14
2023-04-13T07:57:31.275Z,17.03
2023-04-13T08:00:03.305Z,16.95
2023-04-13T08:02:41.057Z,16.94
2023-04-13T08:05:11.713Z,16.92
2023-04-13T08:07:39.456Z,16.76
2023-04-13T08:10:07.910Z,16.44
2023-04-13T08:12:34.257Z,16.28
2023-04-13T08:15:00.849Z,16.08
2023-04-13T08:17:27.390Z,15.98
2023-04-13T08:19:53.843Z,16.31
2023-04-13T08:22:20.190Z,16.73
2023-04-13T08:24:46.862Z,17.21
2023-04-13T08:27:13.095Z,17.46
2023-04-13T08:29:40.140Z,17.48
2023-04-13T08:32:06.705Z,17.32
2023-04-13T08:34:34.331Z,17.27
2023-04-13T08:37:00.510Z,17.25
2023-04-13T08:39:31.160Z,17.51
2023-04-13T08:41:57.852Z,17.46
2023-04-13T08:44:28.907Z,17.18
2023-04-13T08:46:55.909Z,17.04
2023-04-13T08:49:28.798Z,16.57
2023-04-13T08:52:09.548Z,16.96
2023-04-13T08:54:37.225Z,16.28
2023-04-13T08:57:06.836Z,16.39
2023-04-13T08:59:36.689Z,16.53
2023-04-13T09:02:06.014Z,16.47
2023-04-13T09:04:41.640Z,16.52
2023-04-13T09:07:15.352Z,16.41
2023-04-13T09:09:45.010Z,16.30
2023-04-13T09:12:14.085Z,16.40
2023-04-13T09:14:40.734Z,16.34
2023-04-13T09:17:07.498Z,16.00
2023-04-13T09:19:37.860Z,16.29
2023-04-13T09:22:13.479Z,16.38
2023-04-13T09:24:40.960Z,16.35
2023-04-13T09:27:19.690Z,16.40
2023-04-13T09:29:54.731Z,15.96
2023-04-13T09:32:23.020Z,15.94
2023-04-13T09:35:04.608Z,15.94
2023-04-13T09:37:32.001Z,16.27
2023-04-13T09:40:07.918Z,16.19
2023-04-13T09:42:34.449Z,16.55
2023-04-13T09:45:01.677Z,16.76
2023-04-13T09:47:39.572Z,17.27
2023-04-13T09:50:35.835Z,17.39
2023-04-13T09:53:03.785Z,17.63
2023-04-13T09:55:36.311Z,17.19
2023-04-13T09:58:14.242Z,17.55
2023-04-13T10:00:42.638Z,17.21
2023-04-13T10:03:11.092Z,17.43
2023-04-13T10:05:51.073Z,17.63
2023-04-13T10:08:36.732Z,17.82
2023-04-13T10:11:07.675Z,17.92
2023-04-13T10:13:40.793Z,17.67
2023-04-13T10:16:25.541Z,17.79
2023-04-13T10:19:04.512Z,18.09
2023-04-13T10:21:34.802Z,17.90
2023-04-13T10:24:12.495Z,17.59
2023-04-13T10:26:41.182Z,17.92
2023-04-13T10:29:09.422Z,17.84
2023-04-13T10:31:38.904Z,17.29
2023-04-13T10:34:09.827Z,17.45
2023-04-13T10:36:37.826Z,17.60
2023-04-13T10:39:04.214Z,17.66
2023-04-13T10:41:30.833Z,17.97
2023-04-13T10:44:05.199Z,17.86
2023-04-13T10:46:35.378Z,17.79
2023-04-13T10:49:03.400Z,18.07
2023-04-13T10:51:40.329Z,18.17
2023-04-13T10:54:07.634Z,18.06
2023-04-13T10:56:34.386Z,17.95
2023-04-13T10:59:00.920Z,17.80
2023-04-13T11:01:29.940Z,17.61
2023-04-13T11:04:03.814Z,17.64
2023-04-13T11:06:37.097Z,17.63
2023-04-13T11:09:05.848Z,17.50
2023-04-13T11:11:33.621Z,17.72
2023-04-13T11:14:00.179Z,17.75
2023-04-13T11:16:26.951Z,17.89
2023-04-13T11:19:03.397Z,17.86
2023-04-13T11:21:31.157Z,17.82
2023-04-13T11:24:01.323Z,17.61
2023-04-13T11:26:36.883Z,17.44
2023-04-13T11:29:03.984Z,17.36
2023-04-13T11:31:41.257Z,17.31
2023-04-13T11:34:12.329Z,17.29
2023-04-13T11:36:40.264Z,17.05
2023-04-13T11:39:10.255Z,16.81
2023-04-13T11:41:41.479Z,16.79
2023-04-13T11:44:10.650Z,16.56
2023-04-13T11:46:37.424Z,16.40
2023-04-13T11:49:03.952Z,16.23
2023-04-13T11:51:31.860Z,16.25
2023-04-13T11:53:58.984Z,16.17
2023-04-13T11:56:25.547Z,16.23
2023-04-13T11:58:52.637Z,16.30
2023-04-13T12:01:26.116Z,16.07
2023-04-13T12:04:13.961Z,15.98
2023-04-13T12:06:45.014Z,15.83
2023-04-13T12:09:15.684Z,15.73
2023-04-13T12:11:50.092Z,15.64
2023-04-13T12:19:24.018Z,15.78
2023-04-13T12:22:00.207Z,15.84
2023-04-13T12:24:34.184Z,15.57
2023-04-13T12:27:17.757Z,15.63
2023-04-13T12:29:45.197Z,15.59
2023-04-13T12:32:16.268Z,15.36
2023-04-13T12:34:43.255Z,15.33
2023-04-13T12:37:10.928Z,15.42
2023-04-13T12:39:37.229Z,15.30
2023-04-13T12:42:04.495Z,14.99
2023-04-13T12:44:33.241Z,14.99
2023-04-13T12:47:01.695Z,15.12
2023-04-13T12:49:28.212Z,14.90
2023-04-13T12:51:55.163Z,15.05
2023-04-13T12:54:21.336Z,15.17
2023-04-13T12:56:48.275Z,15.11
2023-04-13T12:59:14.694Z,14.81
2023-04-13T13:01:41.213Z,14.60
2023-04-13T13:04:07.547Z,14.68
2023-04-13T13:06:34.591Z,14.80
2023-04-13T13:09:01.097Z,14.77
2023-04-13T13:11:27.896Z,14.71
2023-04-13T13:13:54.522Z,14.81
2023-04-13T13:16:21.166Z,14.59
2023-04-13T13:18:50.908Z,14.50
2023-04-13T13:21:19.460Z,14.32
2023-04-13T13:23:46.044Z,14.35
2023-04-13T13:26:33.158Z,14.40
2023-04-13T13:28:59.810Z,14.39
2023-04-13T13:31:26.879Z,14.44
2023-04-13T13:33:53.640Z,14.35
2023-04-13T13:36:20.035Z,14.29
2023-04-13T13:38:47.011Z,14.26
2023-04-13T13:41:13.817Z,14.05
2023-04-13T13:43:40.181Z,13.95
2023-04-13T13:46:06.997Z,13.97
2023-04-13T13:48:36.328Z,14.07
2023-04-13T13:51:31.017Z,14.09
2023-04-13T13:53:58.739Z,14.11
2023-04-13T13:56:25.435Z,14.15
2023-04-13T13:58:51.594Z,14.29
2023-04-13T14:01:20.928Z,14.37
2023-04-13T14:03:47.921Z,14.58
2023-04-13T14:06:14.972Z,14.77
2023-04-13T14:08:41.407Z,14.93
2023-04-13T14:11:10.573Z,15.06
2023-04-13T14:13:36.675Z,15.03
2023-04-13T14:16:03.852Z,15.07
2023-04-13T14:18:30.125Z,15.17
2023-04-13T14:21:01.299Z,15.44
2023-04-13T14:23:28.198Z,15.51
2023-04-13T14:25:55.094Z,15.50
2023-04-13T14:28:21.429Z,15.21
2023-04-13T14:30:48.185Z,15.18
2023-04-13T14:33:15.491Z,15.04
2023-04-13T14:35:43.001Z,14.76
2023-04-13T14:38:10.849Z,14.54
2023-04-13T14:40:37.674Z,14.37
2023-04-13T14:43:05.364Z,14.27
2023-04-13T14:45:32.471Z,14.24
2023-04-13T14:47:58.956Z,14.12
2023-04-13T14:50:25.734Z,14.12
2023-04-13T14:52:52.018Z,14.05
2023-04-13T14:55:18.799Z,14.12
2023-04-13T14:57:45.290Z,13.99
2023-04-13T15:00:21.017Z,13.99
2023-04-13T15:02:49.288Z,14.03
2023-04-13T15:05:16.604Z,14.10
2023-04-13T15:07:44.596Z,14.14
2023-04-13T15:10:11.870Z,14.05
2023-04-13T15:12:39.662Z,14.06
2023-04-13T15:15:06.942Z,14.12
2023-04-13T15:17:33.500Z,14.21
2023-04-13T15:20:00.271Z,14.24
2023-04-13T15:22:26.562Z,14.15
2023-04-13T15:24:53.179Z,14.25
2023-04-13T15:27:19.655Z,14.27
2023-04-13T15:29:46.164Z,14.21
2023-04-13T15:32:13.583Z,14.29
2023-04-13T15:34:40.175Z,14.25
2023-04-13T15:37:06.507Z,14.16
2023-04-13T15:39:33.087Z,14.23
2023-04-13T15:41:59.827Z,14.19
2023-04-13T15:44:26.358Z,14.26
2023-04-13T15:46:52.765Z,14.18
2023-04-13T15:49:19.366Z,14.19
2023-04-13T15:51:45.671Z,14.20
2023-04-13T15:54:12.219Z,14.17
2023-04-13T15:56:38.430Z,14.16
2023-04-13T15:59:04.801Z,14.18
2023-04-13T16:01:51.406Z,14.16
2023-04-13T16:04:18.351Z,14.11
2023-04-13T16:06:45.289Z,14.03
2023-04-13T16:09:11.912Z,13.97
2023-04-13T16:11:38.119Z,14.02
2023-04-13T16:14:08.529Z,14.02
2023-04-13T16:16:45.871Z,14.06
2023-04-13T16:19:13.358Z,13.99
2023-04-13T16:21:42.637Z,13.94
2023-04-13T16:24:09.951Z,13.73
2023-04-13T16:26:37.132Z,13.86
2023-04-13T16:29:04.589Z,13.72
2023-04-13T16:31:30.919Z,13.59
2023-04-13T16:33:57.466Z,13.64
2023-04-13T16:36:24.320Z,13.57
2023-04-13T16:38:52.419Z,13.62
2023-04-13T16:41:19.008Z,13.60
2023-04-13T16:43:45.409Z,13.62
2023-04-13T16:46:13.201Z,13.62
2023-04-13T16:48:39.537Z,13.62
2023-04-13T16:51:05.981Z,13.60
2023-04-13T16:53:32.172Z,13.58
2023-04-13T16:55:58.642Z,13.58
2023-04-13T16:58:25.189Z,13.52
2023-04-13T17:00:52.212Z,13.40
2023-04-13T17:03:18.570Z,13.35
2023-04-13T17:05:45.762Z,13.30
2023-04-13T17:08:12.294Z,13.34
2023-04-13T17:10:38.831Z,13.37
2023-04-13T17:13:05.064Z,13.35
2023-04-13T17:15:31.929Z,13.33
2023-04-13T17:17:58.172Z,13.26
2023-04-13T17:20:25.306Z,13.24
2023-04-13T17:22:51.648Z,13.25
2023-04-13T17:25:18.724Z,13.06
2023-04-13T17:27:45.171Z,13.02
2023-04-13T17:30:12.830Z,13.05
2023-04-13T17:32:39.372Z,12.99
2023-04-13T17:35:06.097Z,12.97
2023-04-13T17:37:32.266Z,12.89
2023-04-13T17:39:59.275Z,12.73
2023-04-13T17:42:26.775Z,12.64
2023-04-13T17:44:53.792Z,12.52
2023-04-13T17:47:21.786Z,12.39
2023-04-13T17:49:48.817Z,12.22
2023-04-13T17:52:15.591Z,12.10
2023-04-13T17:54:42.144Z,12.05
2023-04-13T17:57:08.426Z,12.07
2023-04-13T17:59:35.215Z,12.04
2023-04-13T18:02:01.584Z,12.01
2023-04-13T18:04:31.054Z,11.96
2023-04-13T18:06:58.969Z,11.78
2023-04-13T18:09:27.366Z,11.67
2023-04-13T18:11:53.628Z,11.50
2023-04-13T18:14:20.610Z,11.52
2023-04-13T18:16:46.909Z,11.47
2023-04-13T18:19:13.887Z,11.40
2023-04-13T18:21:40.057Z,11.27
2023-04-13T18:24:06.977Z,11.34
2023-04-13T18:26:33.290Z,11.35
2023-04-13T18:28:59.947Z,11.35
2023-04-13T18:31:26.674Z,11.41
2023-04-13T18:33:54.596Z,11.54
2023-04-13T18:36:21.125Z,11.63
2023-04-13T18:38:47.927Z,11.60
2023-04-13T18:41:14.618Z,11.57
2023-04-13T18:43:41.722Z,11.59
2023-04-13T18:46:08.240Z,11.52
2023-04-13T18:48:35.282Z,11.45
2023-04-13T18:51:02.538Z,11.42
2023-04-13T18:53:29.203Z,11.46
2023-04-13T18:55:57.446Z,11.33
2023-04-13T18:58:24.388Z,11.38
2023-04-13T19:00:51.100Z,11.27
2023-04-13T19:03:18.084Z,11.27
2023-04-13T19:05:45.467Z,11.22
2023-04-13T19:08:12.806Z,11.18
2023-04-13T19:10:42.120Z,11.11
2023-04-13T19:13:09.476Z,11.18
2023-04-13T19:15:36.187Z,11.15
2023-04-13T19:18:03.812Z,11.19
2023-04-13T19:20:30.405Z,11.23
2023-04-13T19:22:57.656Z,11.17
2023-04-13T19:25:24.052Z,11.02
2023-04-13T19:27:51.137Z,11.00
2023-04-13T19:30:18.692Z,10.99
2023-04-13T19:32:46.921Z,10.97
2023-04-13T19:35:14.476Z,10.94
2023-04-13T19:37:41.620Z,10.94
2023-04-13T19:40:14.445Z,11.02
2023-04-13T19:42:42.694Z,10.99
2023-04-13T19:45:10.385Z,10.95
2023-04-13T19:47:38.837Z,10.98
2023-04-13T19:50:07.743Z,11.15
2023-04-13T19:52:34.429Z,11.08
2023-04-13T19:55:00.894Z,11.13
2023-04-13T19:57:28.108Z,11.26
2023-04-13T19:59:54.780Z,11.31
2023-04-13T20:02:21.947Z,11.34
2023-04-13T20:04:49.462Z,11.33
2023-04-13T20:07:16.987Z,11.39
2023-04-13T20:09:44.403Z,11.24
2023-04-13T20:12:11.563Z,11.19
2023-04-13T20:14:41.104Z,10.79
2023-04-13T20:17:08.486Z,10.96
2023-04-13T20:19:35.716Z,11.10
2023-04-13T20:22:03.992Z,10.96
2023-04-13T20:24:30.854Z,11.07
2023-04-13T20:26:58.084Z,11.14
2023-04-13T20:29:26.270Z,11.23
2023-04-13T20:31:53.378Z,11.35
2023-04-13T20:34:20.448Z,11.40
2023-04-13T20:36:48.622Z,11.35
2023-04-13T20:39:17.699Z,11.38
2023-04-13T20:41:54.686Z,11.36
2023-04-13T20:44:24.993Z,11.31
2023-04-13T20:46:54.932Z,11.28
2023-04-13T20:49:22.524Z,11.26
2023-04-13T20:51:53.079Z,11.17
2023-04-13T20:54:19.803Z,11.07
2023-04-13T20:56:48.476Z,11.07
2023-04-13T20:59:15.683Z,11.07
2023-04-13T21:01:42.462Z,11.04
2023-04-13T21:04:09.360Z,11.00
2023-04-13T21:06:36.381Z,10.83
2023-04-13T21:09:04.872Z,10.80
2023-04-13T21:11:31.387Z,10.82
2023-04-13T21:13:57.662Z,10.89
2023-04-13T21:16:25.109Z,10.81
2023-04-13T21:18:52.887Z,10.86
2023-04-13T21:21:23.465Z,11.03
2023-04-13T21:23:50.463Z,10.94
2023-04-13T21:26:16.868Z,10.79
2023-04-13T21:28:43.110Z,10.70
2023-04-13T21:31:09.463Z,10.71
2023-04-13T21:33:35.787Z,10.83
2023-04-13T21:38:40.830Z,10.71
2023-04-13T21:41:17.537Z,10.71
2023-04-13T21:43:43.974Z,10.68
2023-04-13T21:46:11.366Z,10.66
2023-04-13T21:48:38.628Z,10.69
2023-04-13T21:51:06.276Z,10.75
2023-04-13T21:53:34.753Z,10.64
2023-04-13T21:56:02.161Z,10.61
2023-04-13T21:58:43.186Z,10.63
2023-04-13T22:01:11.950Z,10.65
2023-04-13T22:03:44.514Z,10.58
2023-04-13T22:06:11.039Z,10.51
2023-04-13T22:08:38.095Z,10.41
2023-04-13T22:11:05.223Z,10.30
2023-04-13T22:13:32.001Z,10.39
2023-04-13T22:15:58.576Z,10.47
2023-04-13T22:18:26.117Z,10.50
2023-04-13T22:20:52.743Z,10.45
2023-04-13T22:23:18.904Z,10.49
2023-04-13T22:25:53.548Z,10.61
2023-04-13T22:28:19.750Z,10.49
2023-04-13T22:30:46.585Z,10.49
2023-04-13T22:33:13.333Z,10.47
2023-04-13T22:35:39.936Z,10.49
2023-04-13T22:38:06.066Z,10.52
2023-04-13T22:40:32.753Z,10.68
2023-04-13T22:42:59.013Z,10.63
2023-04-13T22:45:25.826Z,10.66
2023-04-13T22:47:53.034Z,10.74
2023-04-13T22:50:19.855Z,10.73
2023-04-13T22:52:45.927Z,10.73
2023-04-13T22:55:12.322Z,10.66
2023-04-13T22:57:38.955Z,10.70
2023-04-13T23:00:05.927Z,10.64
2023-04-13T23:02:32.353Z,10.66
2023-04-13T23:04:59.345Z,10.74
2023-04-13T23:07:25.636Z,10.85
2023-04-13T23:09:52.538Z,10.76
2023-04-13T23:12:18.640Z,10.81
2023-04-13T23:14:44.994Z,10.93
2023-04-13T23:17:11.368Z,10.84
2023-04-13T23:19:37.828Z,10.72
2023-04-13T23:22:04.847Z,10.73
2023-04-13T23:24:31.181Z,10.51
2023-04-13T23:26:57.295Z,10.48
2023-04-13T23:29:23.773Z,10.55
2023-04-13T23:31:50.051Z,10.63
2023-04-13T23:34:16.633Z,10.70
2023-04-13T23:36:42.721Z,10.39
2023-04-13T23:39:09.095Z,10.33
2023-04-13T23:41:35.176Z,10.34
2023-04-13T23:44:01.542Z,10.40
2023-04-13T23:46:29.475Z,10.42
2023-04-13T23:48:55.826Z,10.42
2023-04-13T23:51:22.140Z,10.38
2023-04-13T23:53:48.492Z,10.43
2023-04-13T23:56:14.613Z,10.47
2023-04-13T23:58:41.036Z,10.53
